Terminal Aerodrome Forecast
Issued by NWS

Home | Current Version | Previous Version | Text Only | Print | Product List | Glossary On
Versions: 1 2 3 4 5 6 7 8 9 10 11 12 13 14 15 16
000
FTUS45 KABQ 271400 AAB
TAFGUP
TAF AMD
KGUP 271457Z 2715/2812 VRB03KT P6SM SCT100
     FM271500 VRB05KT P6SM VCSH BKN090
      TEMPO 2715/2718 VRB12G20KT SHRA BKN040
     FM271800 24010G17KT P6SM SCT080
     FM280200 VRB03KT P6SM FEW120=

USA.gov is the U.S. government's official web portal to all federal, state and local government web resources and services.